Time;durP1;ratioP1;P1;durP2;ratioP2;P2;SDS_P1;SDS_P2;PMS_P1;PMS_P2;Temp;Humidity;BMP_temperature;BMP_pressure;BME280_temperature;BME280_humidity;BME280_pressure;Samples;Min_cycle;Max_cycle;Signal;HPM_P1;HPM_P2
2023/07/04 00:00:59;;;;;;;7.50;2.10;;;;;;;16.17;100.00;100697.88;4946976;28;20486;-72
2023/07/04 00:03:27;;;;;;;10.02;2.20;;;;;;;15.99;100.00;100695.69;4946005;28;20483;-74
2023/07/04 00:05:55;;;;;;;7.47;2.20;;;;;;;15.95;100.00;100689.44;4943412;28;20055;-73
2023/07/04 00:08:24;;;;;;;7.00;1.92;;;;;;;15.80;100.00;100687.59;4939575;28;20059;-72
2023/07/04 00:10:52;;;;;;;11.07;2.75;;;;;;;15.73;100.00;100691.41;4946713;28;20101;-72
2023/07/04 00:13:19;;;;;;;9.20;2.38;;;;;;;15.67;100.00;100690.44;4948796;28;20059;-74
2023/07/04 00:15:48;;;;;;;8.20;2.03;;;;;;;15.63;100.00;100689.75;4950357;28;20506;-73
2023/07/04 00:18:20;;;;;;;13.48;2.15;;;;;;;15.60;100.00;100685.09;4940800;28;20115;-74
2023/07/04 00:20:58;;;;;;;8.40;2.28;;;;;;;15.54;100.00;100692.50;4946064;28;20200;-72
2023/07/04 00:23:31;;;;;;;10.73;2.75;;;;;;;15.47;100.00;100687.13;4948360;28;20082;-74
2023/07/04 00:25:57;;;;;;;8.25;2.17;;;;;;;15.43;100.00;100700.47;4945497;28;20565;-71
2023/07/04 00:28:25;;;;;;;10.50;2.70;;;;;;;15.41;100.00;100697.34;4943818;28;20477;-73
2023/07/04 00:30:53;;;;;;;7.93;2.25;;;;;;;15.34;100.00;100689.13;4942129;28;20157;-73
2023/07/04 00:33:24;;;;;;;13.48;3.60;;;;;;;15.31;100.00;100695.63;4942373;28;20043;-73
2023/07/04 00:36:05;;;;;;;11.60;3.28;;;;;;;15.20;100.00;100688.81;4946049;28;20130;-73
2023/07/04 00:38:33;;;;;;;10.27;2.53;;;;;;;15.02;100.00;100694.97;4941573;28;21078;-73
2023/07/04 00:41:01;;;;;;;15.88;2.95;;;;;;;15.02;100.00;100695.78;4948778;28;20055;-74
2023/07/04 00:46:40;;;;;;;8.82;2.63;;;;;;;15.06;100.00;100694.88;4946377;28;20106;-74
2023/07/04 00:49:18;;;;;;;9.13;2.13;;;;;;;15.02;100.00;100695.78;4948542;28;20073;-72
2023/07/04 00:52:01;;;;;;;6.82;2.65;;;;;;;14.94;100.00;100691.63;4945950;28;20055;-73
2023/07/04 00:54:34;;;;;;;10.48;2.92;;;;;;;14.99;100.00;100693.88;4941742;28;20060;-72
2023/07/04 00:57:02;;;;;;;12.10;2.78;;;;;;;14.99;100.00;100696.66;4942906;28;20057;-74
2023/07/04 00:59:32;;;;;;;11.73;2.92;;;;;;;14.90;100.00;100682.56;4941205;28;20105;-73
2023/07/04 01:01:59;;;;;;;9.93;2.65;;;;;;;14.98;100.00;100691.50;4949568;28;20055;-73
2023/07/04 01:04:26;;;;;;;8.40;2.38;;;;;;;14.96;100.00;100688.41;4950113;28;20062;-73
2023/07/04 01:07:05;;;;;;;9.80;2.60;;;;;;;15.03;100.00;100690.97;4950152;28;20043;-74
2023/07/04 01:09:32;;;;;;;11.32;3.03;;;;;;;14.95;100.00;100684.81;4949466;28;20106;-73
2023/07/04 01:12:02;;;;;;;9.77;2.97;;;;;;;14.97;100.00;100684.34;4946491;28;20079;-73
2023/07/04 01:14:28;;;;;;;9.32;2.60;;;;;;;14.86;100.00;100690.28;4941271;28;20066;-71
2023/07/04 01:16:56;;;;;;;11.05;2.92;;;;;;;14.79;100.00;100695.34;4939481;28;20739;-74
2023/07/04 01:19:34;;;;;;;14.88;3.03;;;;;;;14.76;100.00;100687.81;4942250;28;20051;-75
2023/07/04 01:22:19;;;;;;;12.80;3.10;;;;;;;14.73;100.00;100686.72;4944338;28;20074;-73
2023/07/04 01:24:52;;;;;;;20.73;3.90;;;;;;;14.80;100.00;100685.69;4947516;28;20047;-72
2023/07/04 01:27:21;;;;;;;19.13;4.47;;;;;;;14.83;100.00;100687.59;4946730;28;20514;-73
2023/07/04 01:29:47;;;;;;;17.65;4.50;;;;;;;14.91;100.00;100694.53;4948011;28;20117;-71
2023/07/04 01:32:14;;;;;;;11.70;3.08;;;;;;;14.98;100.00;100688.72;4942357;28;20430;-74
2023/07/04 01:34:41;;;;;;;13.52;3.40;;;;;;;15.01;100.00;100687.81;4945368;28;20511;-71
2023/07/04 01:37:07;;;;;;;7.03;1.95;;;;;;;15.08;100.00;100690.38;4944035;28;20135;-71
2023/07/04 01:39:34;;;;;;;12.40;3.58;;;;;;;15.09;100.00;100694.75;4948633;28;20051;-71
2023/07/04 01:42:04;;;;;;;20.13;4.30;;;;;;;15.24;100.00;100700.69;4941442;28;20582;-72
2023/07/04 01:44:32;;;;;;;14.50;3.95;;;;;;;15.33;100.00;100715.59;4942978;28;20052;-73
2023/07/04 01:46:58;;;;;;;11.43;3.38;;;;;;;15.39;100.00;100729.84;4941062;28;20142;-72
2023/07/04 01:49:25;;;;;;;11.93;3.38;;;;;;;15.36;100.00;100720.31;4944179;28;20167;-73
2023/07/04 01:51:51;;;;;;;13.60;3.75;;;;;;;15.30;100.00;100712.91;4941967;28;20512;-71
2023/07/04 01:54:18;;;;;;;12.07;4.10;;;;;;;15.28;100.00;100712.53;4947080;28;20106;-71
2023/07/04 01:56:52;;;;;;;13.18;3.95;;;;;;;15.22;100.00;100722.78;4943451;28;20055;-71
2023/07/04 01:59:20;;;;;;;14.02;3.67;;;;;;;15.14;100.00;100713.00;4945553;28;20047;-72
2023/07/04 02:01:48;;;;;;;18.48;5.93;;;;;;;15.16;100.00;100711.34;4950328;28;20086;-72
2023/07/04 02:04:15;;;;;;;16.38;4.47;;;;;;;15.17;100.00;100712.13;4937357;28;20055;-73
2023/07/04 02:06:42;;;;;;;17.30;4.32;;;;;;;15.07;100.00;100700.03;4944669;28;20082;-73
2023/07/04 02:09:09;;;;;;;20.83;5.28;;;;;;;15.06;100.00;100706.88;4944535;28;20138;-73
2023/07/04 02:11:35;;;;;;;14.32;4.10;;;;;;;15.09;100.00;100702.38;4947928;28;20055;-71
2023/07/04 02:14:02;;;;;;;15.38;4.40;;;;;;;15.08;100.00;100707.19;4943407;28;20055;-71
2023/07/04 02:16:29;;;;;;;14.65;4.80;;;;;;;14.97;100.00;100709.53;4947290;28;20055;-72
2023/07/04 02:18:55;;;;;;;14.40;4.32;;;;;;;14.96;100.00;100699.59;4949622;28;20513;-73
2023/07/04 02:21:26;;;;;;;12.32;4.93;;;;;;;14.91;100.00;100692.53;4947202;28;20133;-73
2023/07/04 02:23:54;;;;;;;12.55;3.10;;;;;;;14.82;100.00;100697.25;4947727;28;20051;-71
2023/07/04 02:26:20;;;;;;;12.32;3.53;;;;;;;14.81;100.00;100707.63;4955524;28;20039;-72
2023/07/04 02:28:47;;;;;;;3.83;1.95;;;;;;;14.65;100.00;100704.94;4945862;28;20178;-73
2023/07/04 02:31:13;;;;;;;15.00;3.92;;;;;;;14.66;100.00;100694.53;4948402;28;20054;-73
2023/07/04 02:33:40;;;;;;;12.50;3.28;;;;;;;14.69;100.00;100699.25;4946016;28;20138;-74
2023/07/04 02:36:11;;;;;;;8.48;2.15;;;;;;;14.62;100.00;100702.25;4937773;28;20055;-76
2023/07/04 02:38:41;;;;;;;5.80;1.83;;;;;;;14.67;100.00;100696.09;4951405;28;20528;-75
2023/07/04 02:41:08;;;;;;;18.48;3.20;;;;;;;14.68;100.00;100698.44;4951312;28;20078;-73
2023/07/04 02:43:35;;;;;;;13.60;2.90;;;;;;;14.69;100.00;100702.78;4956933;28;20109;-72
2023/07/04 02:46:04;;;;;;;21.60;3.72;;;;;;;14.69;100.00;100711.19;4955087;28;20529;-72
2023/07/04 02:48:31;;;;;;;16.23;3.67;;;;;;;14.65;100.00;100709.75;4948011;28;20051;-69
2023/07/04 02:50:58;;;;;;;20.15;4.07;;;;;;;14.66;100.00;100700.13;4947017;28;20107;-74
2023/07/04 02:53:25;;;;;;;9.48;2.05;;;;;;;14.57;100.00;100691.59;4951552;28;20094;-75
2023/07/04 02:55:53;;;;;;;13.45;4.03;;;;;;;14.41;100.00;100702.81;4952026;28;20051;-74
2023/07/04 02:58:20;;;;;;;23.05;4.68;;;;;;;14.52;100.00;100695.72;4951981;28;20102;-72
2023/07/04 03:00:48;;;;;;;20.45;4.13;;;;;;;14.65;100.00;100704.16;4944860;28;20066;-73
2023/07/04 03:03:16;;;;;;;5.93;2.10;;;;;;;14.44;100.00;100704.78;4948479;28;20884;-73
2023/07/04 03:05:44;;;;;;;22.23;4.50;;;;;;;14.56;100.00;100701.22;4947763;28;20102;-73
2023/07/04 03:08:11;;;;;;;22.83;4.85;;;;;;;14.54;100.00;100695.28;4940929;28;20048;-74
2023/07/04 03:10:37;;;;;;;3.58;1.48;;;;;;;14.59;100.00;100705.94;4952572;28;20087;-73
2023/07/04 03:13:04;;;;;;;5.60;1.85;;;;;;;14.54;100.00;100703.66;4950442;28;20059;-73
2023/07/04 03:15:31;;;;;;;19.45;4.10;;;;;;;14.48;100.00;100708.25;4952424;28;20078;-75
2023/07/04 03:17:57;;;;;;;9.38;2.75;;;;;;;14.46;100.00;100697.53;4947155;28;20103;-74
2023/07/04 03:20:24;;;;;;;18.05;3.85;;;;;;;14.48;100.00;100708.25;4947803;28;20055;-74
2023/07/04 03:22:51;;;;;;;11.45;2.10;;;;;;;14.39;100.00;100708.09;4950748;28;20086;-71
2023/07/04 03:25:17;;;;;;;15.38;3.65;;;;;;;14.44;100.00;100711.16;4951017;28;20055;-73
2023/07/04 03:27:44;;;;;;;15.15;4.00;;;;;;;14.49;100.00;100695.84;4957399;28;20055;-72
2023/07/04 03:30:11;;;;;;;13.68;2.47;;;;;;;14.50;100.00;100706.59;4950268;28;20506;-73
2023/07/04 03:32:38;;;;;;;11.18;2.95;;;;;;;14.53;100.00;100710.50;4949058;28;20058;-73
2023/07/04 03:35:06;;;;;;;7.78;2.67;;;;;;;14.48;100.00;100703.44;4940412;28;20502;-74
2023/07/04 03:37:36;;;;;;;4.15;1.80;;;;;;;14.41;100.00;100706.41;4945897;28;20052;-73
2023/07/04 03:40:07;;;;;;;7.32;2.35;;;;;;;14.37;100.00;100699.34;4945761;28;20087;-73
2023/07/04 03:42:35;;;;;;;12.40;2.63;;;;;;;14.35;100.00;100715.81;4950781;28;20059;-73
2023/07/04 03:45:02;;;;;;;13.00;3.53;;;;;;;14.37;100.00;100716.13;4950269;28;20102;-74
2023/07/04 03:47:28;;;;;;;13.18;2.38;;;;;;;14.41;100.00;100705.63;4951440;28;20769;-74
2023/07/04 03:49:55;;;;;;;16.15;2.90;;;;;;;14.36;100.00;100717.38;4947539;28;20079;-75
2023/07/04 03:52:22;;;;;;;8.63;2.63;;;;;;;14.45;100.00;100712.72;4949682;28;20081;-74
2023/07/04 03:54:48;;;;;;;20.02;4.03;;;;;;;14.47;100.00;100712.28;4951059;28;20162;-75
2023/07/04 03:57:15;;;;;;;12.77;3.80;;;;;;;14.44;100.00;100715.97;4943517;28;20212;-75
2023/07/04 03:59:42;;;;;;;8.23;1.77;;;;;;;14.38;100.00;100717.72;4945366;28;20081;-74
2023/07/04 04:02:09;;;;;;;17.05;4.35;;;;;;;14.45;100.00;100720.34;4945761;28;20502;-73
2023/07/04 04:04:39;;;;;;;9.77;3.20;;;;;;;14.41;100.00;100719.59;4946994;28;20078;-73
2023/07/04 04:07:07;;;;;;;10.50;3.05;;;;;;;14.39;100.00;100724.88;4948386;28;20051;-73
2023/07/04 04:09:34;;;;;;;5.53;2.30;;;;;;;14.41;100.00;100720.41;4949662;28;20170;-74
2023/07/04 04:12:01;;;;;;;23.02;1.70;;;;;;;14.37;100.00;100724.53;4951257;28;20079;-73
2023/07/04 04:14:31;;;;;;;14.07;2.92;;;;;;;14.42;100.00;100719.19;4950956;28;20542;-74
2023/07/04 04:16:59;;;;;;;3.72;1.92;;;;;;;14.43;100.00;100726.38;4951169;28;20047;-73
2023/07/04 04:19:26;;;;;;;9.18;1.88;;;;;;;14.40;100.00;100720.84;4948125;28;20074;-73
2023/07/04 04:21:53;;;;;;;15.98;2.13;;;;;;;14.30;100.00;100722.72;4947806;28;20055;-74
2023/07/04 04:24:20;;;;;;;14.88;3.55;;;;;;;14.43;100.00;100731.19;4953651;28;20101;-74
2023/07/04 04:26:47;;;;;;;17.20;4.70;;;;;;;14.44;100.00;100738.34;4951145;28;20499;-72
2023/07/04 04:29:17;;;;;;;18.15;5.00;;;;;;;14.23;100.00;100742.50;4951521;28;20055;-74
2023/07/04 04:31:45;;;;;;;6.88;2.33;;;;;;;14.31;100.00;100740.28;4952721;28;20058;-73
2023/07/04 04:34:12;;;;;;;23.70;4.40;;;;;;;14.28;100.00;100747.53;4948713;28;20058;-73
2023/07/04 04:36:39;;;;;;;26.30;5.20;;;;;;;14.44;100.00;100744.72;4948554;28;20091;-74
2023/07/04 04:39:06;;;;;;;18.83;4.15;;;;;;;14.40;100.00;100752.41;4945126;28;20051;-74
2023/07/04 04:41:32;;;;;;;15.98;3.85;;;;;;;14.37;100.00;100750.50;4950529;28;20047;-73
2023/07/04 04:44:02;;;;;;;17.20;4.10;;;;;;;14.44;100.00;100755.13;4946765;28;20051;-71
2023/07/04 04:46:28;;;;;;;11.43;3.28;;;;;;;14.36;100.00;100759.31;4951031;28;20145;-74
2023/07/04 04:48:58;;;;;;;10.43;2.90;;;;;;;14.31;100.00;100766.25;4947293;28;20161;-73
2023/07/04 04:51:25;;;;;;;3.33;1.58;;;;;;;14.35;100.00;100763.34;4939760;28;20579;-76
2023/07/04 04:53:52;;;;;;;21.77;5.00;;;;;;;14.17;100.00;100763.84;4947460;28;20055;-75
2023/07/04 04:56:18;;;;;;;18.83;3.95;;;;;;;14.47;100.00;100759.81;4948682;28;20154;-72
2023/07/04 04:58:45;;;;;;;16.92;4.00;;;;;;;14.31;100.00;100759.84;4944661;28;20789;-72
2023/07/04 05:01:19;;;;;;;12.52;3.00;;;;;;;14.41;100.00;100767.16;4946757;28;20082;-75
2023/07/04 05:03:50;;;;;;;19.17;3.90;;;;;;;14.41;100.00;100773.53;4948352;28;20138;-72
2023/07/04 05:06:17;;;;;;;18.60;4.45;;;;;;;14.53;100.00;100770.06;4944132;28;20051;-75
2023/07/04 05:08:43;;;;;;;13.80;4.03;;;;;;;14.37;100.00;100778.47;4944642;28;20564;-74
2023/07/04 05:11:10;;;;;;;23.95;3.83;;;;;;;14.51;100.00;100771.69;4947113;28;20047;-72
2023/07/04 05:13:38;;;;;;;19.67;5.07;;;;;;;14.54;100.00;100777.22;4947762;28;20139;-74
2023/07/04 05:16:07;;;;;;;24.95;4.75;;;;;;;14.51;100.00;100778.09;4949218;28;20082;-71
2023/07/04 05:18:35;;;;;;;9.75;3.20;;;;;;;14.49;100.00;100771.38;4947994;28;20055;-73
2023/07/04 05:21:06;;;;;;;13.48;3.22;;;;;;;14.28;100.00;100769.91;4947941;28;20055;-76
2023/07/04 05:23:41;;;;;;;23.05;5.53;;;;;;;14.46;100.00;100778.66;4943089;28;20099;-75
2023/07/04 05:26:12;;;;;;;;;;;;;;;14.58;100.00;100766.69;4957050;28;20141;-73
2023/07/04 05:28:40;;;;;;;16.77;3.70;;;;;;;14.46;100.00;100763.88;4947653;28;20056;-72
2023/07/04 05:31:12;;;;;;;6.32;2.65;;;;;;;14.54;100.00;100766.00;4947853;28;20051;-73
2023/07/04 05:33:42;;;;;;;31.13;7.80;;;;;;;14.62;100.00;100766.59;4946711;28;20052;-74
2023/07/04 05:36:13;;;;;;;6.47;2.10;;;;;;;14.52;100.00;100776.84;4947689;28;20082;-75
2023/07/04 05:38:40;;;;;;;7.65;1.90;;;;;;;14.61;100.00;100779.78;4944934;28;20055;-73
2023/07/04 05:41:08;;;;;;;13.05;3.70;;;;;;;14.59;100.00;100773.09;4941688;28;20048;-75
2023/07/04 05:43:35;;;;;;;13.20;3.95;;;;;;;14.66;100.00;100782.03;4948345;28;20057;-75
2023/07/04 05:46:02;;;;;;;20.83;5.70;;;;;;;14.61;100.00;100781.78;4948164;28;20055;-72
2023/07/04 05:48:29;;;;;;;25.15;5.97;;;;;;;14.64;100.00;100792.09;4948293;28;20138;-73
2023/07/04 05:50:58;;;;;;;12.10;3.42;;;;;;;14.55;100.00;100783.59;4945036;28;20585;-73
2023/07/04 05:53:28;;;;;;;10.55;3.25;;;;;;;14.57;100.00;100801.50;4936911;28;20056;-75
2023/07/04 05:56:28;;;;;;;23.55;5.40;;;;;;;14.73;100.00;100783.84;4948410;28;20051;-74
2023/07/04 05:58:57;;;;;;;16.92;3.08;;;;;;;14.76;100.00;100791.38;4946563;28;20506;-74
2023/07/04 06:01:24;;;;;;;21.10;5.95;;;;;;;14.86;100.00;100796.63;4947270;28;20051;-73
2023/07/04 06:03:52;;;;;;;14.10;4.13;;;;;;;14.78;100.00;100786.09;4945963;28;20075;-74
2023/07/04 06:06:21;;;;;;;13.73;4.38;;;;;;;14.66;100.00;100810.03;4946122;28;20057;-75
2023/07/04 06:08:49;;;;;;;21.88;5.35;;;;;;;14.80;100.00;100800.44;4946632;28;20114;-73
2023/07/04 06:11:16;;;;;;;18.50;4.97;;;;;;;14.88;100.00;100804.59;4939329;28;20051;-72
2023/07/04 06:13:43;;;;;;;25.77;6.95;;;;;;;15.02;100.00;100797.81;4943289;28;20146;-74
2023/07/04 06:16:10;;;;;;;16.20;5.18;;;;;;;15.00;100.00;100798.25;4941280;28;20047;-74
2023/07/04 06:18:37;;;;;;;20.67;6.45;;;;;;;15.09;100.00;100812.34;4943228;28;20462;-75
2023/07/04 06:21:15;;;;;;;13.88;4.00;;;;;;;15.05;100.00;100813.72;4943902;28;20110;-74
2023/07/04 06:23:46;;;;;;;17.17;3.80;;;;;;;15.16;100.00;100811.38;4948053;28;20516;-74
2023/07/04 06:26:13;;;;;;;16.17;4.95;;;;;;;15.11;100.00;100809.91;4941253;28;20055;-73
2023/07/04 06:28:41;;;;;;;9.57;3.70;;;;;;;15.18;100.00;100811.69;4947722;28;20078;-74
2023/07/04 06:31:13;;;;;;;12.55;4.13;;;;;;;15.16;100.00;100816.97;4952143;28;20106;-74
2023/07/04 06:33:40;;;;;;;17.20;6.05;;;;;;;15.24;100.00;100813.50;4950836;28;20131;-71
2023/07/04 06:36:12;;;;;;;15.70;3.95;;;;;;;15.16;100.00;100816.97;4948797;28;20055;-73
2023/07/04 06:38:39;;;;;;;19.73;4.88;;;;;;;15.39;100.00;100811.84;4946918;28;20055;-73
2023/07/04 06:41:08;;;;;;;13.07;4.35;;;;;;;15.43;100.00;100825.75;4950656;28;20643;-72
2023/07/04 06:43:35;;;;;;;27.35;6.93;;;;;;;15.53;100.00;100814.19;4943577;28;20055;-73
2023/07/04 06:46:02;;;;;;;12.13;3.85;;;;;;;15.42;100.00;100827.75;4951383;28;20054;-74
2023/07/04 06:48:29;;;;;;;20.20;6.00;;;;;;;15.49;100.00;100829.56;4945504;28;20090;-75
2023/07/04 06:51:01;;;;;;;22.52;7.00;;;;;;;15.60;100.00;100830.00;4943031;28;20051;-71
2023/07/04 06:53:29;;;;;;;10.55;3.72;;;;;;;15.43;100.00;100820.16;4951321;28;20481;-72
2023/07/04 06:56:17;;;;;;;6.10;2.55;;;;;;;15.39;100.00;100825.84;4942957;28;20054;-73
2023/07/04 06:58:47;;;;;;;25.60;4.57;;;;;;;15.40;100.00;100835.84;4950164;28;20039;-73
2023/07/04 07:01:14;;;;;;;19.45;5.78;;;;;;;15.56;100.00;100832.91;4943102;28;20063;-73
2023/07/04 07:03:41;;;;;;;9.05;3.33;;;;;;;15.45;100.00;100840.88;4950642;28;20059;-73
2023/07/04 07:06:10;;;;;;;19.05;4.43;;;;;;;15.45;100.00;100829.66;4951182;28;20597;-70
2023/07/04 07:08:37;;;;;;;28.88;8.32;;;;;;;15.78;100.00;100835.81;4943684;28;20059;-72
2023/07/04 07:11:07;;;;;;;10.23;2.47;;;;;;;15.79;100.00;100838.16;4943616;28;20051;-71
2023/07/04 07:13:34;;;;;;;14.95;3.70;;;;;;;15.90;100.00;100844.19;4945768;28;20058;-71
2023/07/04 07:16:16;;;;;;;18.38;4.90;;;;;;;15.58;100.00;100847.28;4956862;28;20054;-70
2023/07/04 07:18:44;;;;;;;10.15;3.72;;;;;;;15.66;100.00;100847.84;4943958;28;20043;-71
2023/07/04 07:21:12;;;;;;;4.90;2.80;;;;;;;15.78;100.00;100847.03;4950084;28;20051;-70
2023/07/04 07:23:40;;;;;;;25.50;6.32;;;;;;;15.95;100.00;100840.06;4950175;28;20118;-70
2023/07/04 07:26:10;;;;;;;8.63;2.55;;;;;;;15.97;100.00;100852.38;4948409;28;20059;-72
2023/07/04 07:28:41;;;;;;;13.10;3.35;;;;;;;15.84;100.00;100836.81;4949896;28;20058;-73
2023/07/04 07:31:18;;;;;;;6.90;2.97;;;;;;;15.92;100.00;100844.56;4947994;28;20063;-70
2023/07/04 07:33:48;;;;;;;15.98;4.70;;;;;;;16.06;100.00;100855.28;4938277;28;20098;-68
2023/07/04 07:36:15;;;;;;;12.85;2.53;;;;;;;16.06;100.00;100855.28;4943575;28;20055;-71
2023/07/04 07:38:42;;;;;;;14.00;3.80;;;;;;;16.15;100.00;100860.22;4942301;28;20050;-73
2023/07/04 07:41:08;;;;;;;13.00;3.65;;;;;;;16.34;100.00;100859.19;4946962;28;20106;-71
2023/07/04 07:43:38;;;;;;;7.15;2.60;;;;;;;16.47;100.00;100857.91;4948942;28;20113;-72
2023/07/04 07:46:13;;;;;;;18.85;5.25;;;;;;;16.58;100.00;100868.75;4946175;28;20051;-72
2023/07/04 07:48:39;;;;;;;;;;;;;;;16.74;100.00;100860.94;4945532;28;20047;-71
2023/07/04 07:51:09;;;;;;;22.33;5.43;;;;;;;16.79;100.00;100854.75;4940689;28;19969;-71
2023/07/04 07:53:37;;;;;;;20.80;5.00;;;;;;;16.62;100.00;100861.00;4948589;28;20055;-72
2023/07/04 07:56:05;;;;;;;18.55;5.28;;;;;;;16.63;100.00;100863.34;4949154;28;20596;-72
2023/07/04 07:58:33;;;;;;;9.88;3.42;;;;;;;16.50;100.00;100867.41;4949279;28;20580;-72
2023/07/04 08:01:09;;;;;;;10.10;3.30;;;;;;;16.42;100.00;100857.69;4941939;28;20079;-73
2023/07/04 08:03:35;;;;;;;10.93;2.92;;;;;;;16.45;100.00;100871.63;4947143;28;20082;-71
2023/07/04 08:06:02;;;;;;;19.88;5.15;;;;;;;16.51;100.00;100869.78;4945847;28;20094;-69
2023/07/04 08:08:28;;;;;;;15.35;3.70;;;;;;;16.56;100.00;100857.97;4942257;28;20750;-70
2023/07/04 08:10:55;;;;;;;10.45;2.97;;;;;;;16.67;100.00;100858.38;4950058;28;20426;-72
2023/07/04 08:13:21;;;;;;;15.27;3.30;;;;;;;16.88;100.00;100863.22;4932536;28;20529;-72
2023/07/04 08:15:55;;;;;;;14.98;2.88;;;;;;;16.71;100.00;100861.84;4945998;28;20055;-71
2023/07/04 08:18:22;;;;;;;8.48;2.58;;;;;;;16.83;100.00;100861.00;4944490;28;20391;-71
2023/07/04 08:21:02;;;;;;;10.52;3.42;;;;;;;17.10;100.00;100855.56;4937332;28;20068;-68
2023/07/04 08:23:29;;;;;;;10.98;2.72;;;;;;;17.05;100.00;100864.56;4945687;28;20511;-71
2023/07/04 08:25:56;;;;;;;5.13;1.85;;;;;;;17.04;100.00;100865.03;4944308;28;20109;-71
2023/07/04 08:28:23;;;;;;;8.32;2.33;;;;;;;16.94;100.00;100860.59;4942661;28;20043;-72
2023/07/04 08:30:50;;;;;;;8.52;3.05;;;;;;;17.00;100.00;100858.78;4944737;28;20047;-72
2023/07/04 08:33:17;;;;;;;18.25;4.50;;;;;;;17.23;100.00;100863.94;4943263;28;20470;-71
2023/07/04 08:36:00;;;;;;;10.95;2.83;;;;;;;17.21;100.00;100867.22;4944294;28;20055;-70
2023/07/04 08:38:27;;;;;;;13.43;3.63;;;;;;;17.32;100.00;100861.19;4937169;28;20063;-71
2023/07/04 08:40:54;;;;;;;12.43;4.32;;;;;;;17.59;100.00;100863.34;4947980;28;20627;-72
2023/07/04 08:43:34;;;;;;;10.65;2.55;;;;;;;17.64;100.00;100851.47;4940545;28;20046;-71
2023/07/04 08:46:06;;;;;;;8.48;2.97;;;;;;;17.59;100.00;100866.94;4936978;28;20043;-71
2023/07/04 08:48:33;;;;;;;13.40;3.03;;;;;;;17.58;100.00;100862.56;4936489;28;20055;-69
2023/07/04 08:51:02;;;;;;;14.38;2.92;;;;;;;17.56;100.00;100881.13;4932234;28;20047;-72
2023/07/04 08:53:31;;;;;;;18.90;4.78;;;;;;;17.77;100.00;100854.97;4941138;28;20623;-73
2023/07/04 08:56:12;;;;;;;16.83;3.90;;;;;;;17.86;100.00;100853.00;4942868;28;21083;-74
2023/07/04 08:58:53;;;;;;;7.85;2.65;;;;;;;17.73;100.00;100865.59;4943473;28;20055;-72
2023/07/04 09:01:42;;;;;;;8.48;2.08;;;;;;;17.56;100.00;100876.31;4946773;28;20051;-73
2023/07/04 09:04:21;;;;;;;11.80;3.03;;;;;;;17.37;100.00;100891.50;4949158;28;20450;-72
2023/07/04 09:07:00;;;;;;;3.15;1.70;;;;;;;17.51;100.00;100870.50;4943084;28;20055;-70
2023/07/04 09:09:49;;;;;;;11.18;2.80;;;;;;;17.90;100.00;100873.31;4938257;28;20467;-71
2023/07/04 09:12:16;;;;;;;2.80;1.20;;;;;;;17.96;100.00;100879.13;4948716;28;20050;-71
2023/07/04 09:14:52;;;;;;;4.60;1.25;;;;;;;17.85;100.00;100896.41;4947051;28;20755;-71
2023/07/04 09:17:31;;;;;;;12.88;2.95;;;;;;;17.77;100.00;100902.78;4930711;28;20544;-72
2023/07/04 09:19:58;;;;;;;9.52;2.03;;;;;;;17.81;100.00;100892.16;4942787;28;20051;-71
2023/07/04 09:22:25;;;;;;;11.20;2.88;;;;;;;17.60;100.00;100901.44;4942668;28;20082;-72
2023/07/04 09:24:51;;;;;;;15.77;3.97;;;;;;;18.01;100.00;100898.22;4945855;28;20086;-72
2023/07/04 09:27:19;;;;;;;16.73;3.20;;;;;;;18.10;100.00;100901.06;4945769;28;20194;-70
2023/07/04 09:29:46;;;;;;;4.53;1.85;;;;;;;18.26;100.00;100897.97;4946274;28;20170;-70
2023/07/04 09:32:12;;;;;;;6.82;1.83;;;;;;;18.45;100.00;100905.97;4939741;28;20400;-73
2023/07/04 09:34:49;;;;;;;9.70;2.97;;;;;;;18.48;100.00;100887.34;4940710;28;20051;-72
2023/07/04 09:37:19;;;;;;;5.30;1.60;;;;;;;18.52;100.00;100911.31;4943776;28;20062;-74
2023/07/04 09:39:54;;;;;;;5.47;1.52;;;;;;;18.48;100.00;100859.22;4939984;28;20130;-81
2023/07/04 09:42:39;;;;;;;8.43;2.63;;;;;;;18.52;100.00;100871.09;4944814;28;20718;-72
2023/07/04 09:45:19;;;;;;;13.18;3.33;;;;;;;18.39;100.00;100893.75;4939376;28;20079;-73
2023/07/04 09:47:46;;;;;;;12.25;2.38;;;;;;;18.67;100.00;100877.69;4937232;28;20126;-75
2023/07/04 09:50:21;;;;;;;6.13;1.88;;;;;;;18.57;100.00;100890.19;4947052;28;20058;-74
2023/07/04 09:53:07;;;;;;;15.45;2.95;;;;;;;18.64;100.00;100878.63;4943738;28;20051;-72
2023/07/04 09:55:35;;;;;;;15.05;3.90;;;;;;;18.86;100.00;100896.16;4948455;28;20054;-75
2023/07/04 09:58:19;;;;;;;4.22;1.77;;;;;;;18.99;100.00;100899.59;4951580;28;20466;-72
2023/07/04 10:01:06;;;;;;;5.38;1.15;;;;;;;19.08;100.00;100899.59;4943452;28;20056;-75
2023/07/04 10:03:33;;;;;;;10.13;2.40;;;;;;;19.28;100.00;100897.06;4943683;28;20047;-74
2023/07/04 10:06:00;;;;;;;5.50;2.15;;;;;;;18.95;100.00;100901.78;4938515;28;20060;-75
2023/07/04 10:08:27;;;;;;;10.95;1.95;;;;;;;18.79;100.00;100899.28;4940038;28;20577;-71
2023/07/04 10:10:57;;;;;;;11.73;2.65;;;;;;;19.14;100.00;100901.28;4951471;28;20051;-72
2023/07/04 10:13:39;;;;;;;9.73;2.15;;;;;;;19.12;100.00;100914.31;4940346;28;20069;-72
2023/07/04 10:16:23;;;;;;;7.07;1.70;;;;;;;18.95;100.00;100896.16;4950250;28;20047;-74
2023/07/04 10:18:49;;;;;;;13.10;3.22;;;;;;;19.20;100.00;100899.41;4945232;28;20058;-73
2023/07/04 10:21:18;;;;;;;6.57;1.40;;;;;;;19.06;100.00;100902.09;4943748;28;20098;-72
2023/07/04 10:23:45;;;;;;;5.75;1.80;;;;;;;19.06;100.00;100900.06;4946517;28;20139;-73
2023/07/04 10:26:14;;;;;;;10.60;2.35;;;;;;;19.18;100.00;100879.38;4946502;28;20117;-75
2023/07/04 10:28:41;;;;;;;3.30;1.67;;;;;;;19.24;100.00;100883.13;4947871;28;20461;-71
2023/07/04 10:31:17;;;;;;;13.77;2.53;;;;;;;19.17;100.00;100905.22;4944468;28;20051;-72
2023/07/04 10:33:57;;;;;;;6.32;2.20;;;;;;;19.00;100.00;100889.91;4940222;28;20051;-71
2023/07/04 10:36:31;;;;;;;17.73;2.35;;;;;;;19.21;100.00;100895.34;4942645;28;20047;-70
2023/07/04 10:39:12;;;;;;;7.53;2.60;;;;;;;19.54;100.00;100886.97;4942593;28;20039;-70
2023/07/04 10:41:55;;;;;;;9.73;2.35;;;;;;;19.79;100.00;100889.41;4938530;28;20532;-69
2023/07/04 10:44:24;;;;;;;10.02;2.83;;;;;;;19.89;100.00;100885.28;4950707;28;20066;-70
2023/07/04 10:46:57;;;;;;;3.03;1.20;;;;;;;19.61;100.00;100883.81;4939061;28;20094;-73
2023/07/04 10:49:28;;;;;;;15.68;3.17;;;;;;;19.85;100.00;100887.50;4933849;28;20058;-72
2023/07/04 10:52:01;;;;;;;4.10;1.33;;;;;;;19.75;100.00;100895.19;4938948;28;20430;-74
2023/07/04 10:54:29;;;;;;;13.25;2.95;;;;;;;20.15;100.00;100891.25;4942509;28;20055;-70
2023/07/04 10:57:05;;;;;;;15.63;3.15;;;;;;;20.41;100.00;100889.53;4947187;28;20103;-73
2023/07/04 10:59:35;;;;;;;7.75;1.73;;;;;;;19.90;100.00;100886.03;4943195;28;20082;-71
2023/07/04 11:02:30;;;;;;;7.55;2.13;;;;;;;20.05;100.00;100890.50;4945784;28;20109;-72
2023/07/04 11:05:08;;;;;;;4.13;1.90;;;;;;;19.90;100.00;100892.47;4941588;28;20043;-71
2023/07/04 11:07:39;;;;;;;4.63;1.52;;;;;;;20.19;100.00;100903.16;4948083;28;20590;-71
2023/07/04 11:10:09;;;;;;;5.30;1.15;;;;;;;20.20;100.00;100896.22;4945285;28;20414;-72
2023/07/04 11:12:37;;;;;;;6.82;2.00;;;;;;;20.21;100.00;100892.94;4942035;28;20514;-71
2023/07/04 11:15:16;;;;;;;9.43;2.30;;;;;;;20.33;100.00;100899.63;4945262;28;20082;-71
2023/07/04 11:17:44;;;;;;;5.30;1.58;;;;;;;20.23;100.00;100884.81;4947788;28;20110;-73
2023/07/04 11:20:17;;;;;;;13.82;3.70;;;;;;;20.61;100.00;100878.41;4948708;28;20050;-70
2023/07/04 11:22:50;;;;;;;12.15;2.65;;;;;;;20.92;100.00;100884.41;4943711;28;20102;-72
2023/07/04 11:25:41;;;;;;;7.18;1.50;;;;;;;21.10;99.96;100884.28;4943362;28;21463;-73
2023/07/04 11:28:15;;;;;;;5.47;1.77;;;;;;;21.25;100.00;100876.59;4946673;28;20430;-70